Saint Paul, South Carolina
Current Conditions -  °F | °C
As of 11:58 PM on Friday 19 Dec 2014 (Local Time) from KSSC Reporting Station
Few Clouds Few Clouds  
Wind Chill: 46°   Ceiling: Unl
Heat Index: 46°   Visibility: 10mi
Dew Point: 36°   Wind: 0mph
Humidity: 69%   Direction: NA
Pressure: 30.17"   Gusts: NA
Location:  33.5851°N, 80.3623°W
Report Text: KSSC 200458Z AUTO 00000KT 10SM FEW037 08/02 A3017 RMK AO2 SLP218 T00760023 401560002 $
Loading
Personal Weather Stations






























Interactive Weather Map New forecast layout! Learn more

10-Day Weather Forecast

Advertisements
Track Severe Weather on mobile